This is the latest recevied weather packets stored in our database for station/object IK6ZNK-3. If no packets are shown the sender has not sent any weather packets the latest 10 day(s).
| Time | Temp. | Humidity | Pressure | Rain* | Wind** | Luminosity | Snow |
|---|---|---|---|---|---|---|---|
| 1777458017 | 22.78° C | 55% | 1007.8 hPa | 0 mm | - | - | - |
| 1777457416 | 22.78° C | 53% | 1007.7 hPa | 0 mm | - | - | - |
| 1777456816 | 22.78° C | 48% | 1008 hPa | 0 mm | - | - | - |
| 1777456213 | 22.78° C | 47% | 1008 hPa | 0 mm | - | - | - |
| 1777455611 | 22.22° C | 50% | 1008.2 hPa | 0 mm | - | - | - |
| 1777455012 | 22.22° C | 53% | 1007.9 hPa | 0 mm | - | - | - |
| 1777454414 | 21.67° C | 53% | 1007.9 hPa | 0 mm | - | - | - |
| 1777453816 | 21.67° C | 51% | 1008.1 hPa | 0 mm | - | - | - |
| 1777453214 | 21.67° C | 53% | 1008.1 hPa | 0 mm | - | - | - |
| 1777452614 | 22.22° C | 52% | 1008.1 hPa | 0 mm | - | - | - |
| 1777452016 | 21.67° C | 49% | 1007.8 hPa | 0 mm | - | - | - |
| 1777451411 | 21.67° C | 49% | 1008 hPa | 0 mm | - | - | - |
| 1777450812 | 21.67° C | 50% | 1007.7 hPa | 0 mm | - | - | - |
| 1777450210 | 21.11° C | 50% | 1007.7 hPa | 0 mm | - | - | - |
| 1777449612 | 21.11° C | 48% | 1007.8 hPa | 0 mm | - | - | - |
| 1777449012 | 21.11° C | 46% | 1007.7 hPa | 0 mm | - | - | - |
| 1777448414 | 21.11° C | 44% | 1007.5 hPa | 0 mm | - | - | - |
| 1777447810 | 21.11° C | 46% | 1007.5 hPa | 0 mm | - | - | - |
| 1777447210 | 20° C | 53% | 1007.6 hPa | 0 mm | - | - | - |
| 1777446611 | 19.44° C | 55% | 1007.8 hPa | 0 mm | - | - | - |
| 1777446009 | 19.44° C | 54% | 1007.7 hPa | 0 mm | - | - | - |
| 1777445406 | 20° C | 51% | 1007.6 hPa | 0 mm | - | - | - |
| 1777444806 | 19.44° C | 49% | 1007.5 hPa | 0 mm | - | - | - |
| 1777444206 | 19.44° C | 47% | 1007.7 hPa | 0 mm | - | - | - |
| 1777443607 | 19.44° C | 46% | 1007.6 hPa | 0 mm | - | - | - |
* Rain latest hour (hover to see other rain measurements)
** Current wind speed in m/s (hover to see current wind gust speed)